Time;durP1;ratioP1;P1;durP2;ratioP2;P2;SDS_P1;SDS_P2;PMS_P1;PMS_P2;Temp;Humidity;BMP_temperature;BMP_pressure;BME280_temperature;BME280_humidity;BME280_pressure;Samples;Min_cycle;Max_cycle;Signal;HPM_P1;HPM_P2
2021/08/26 00:05:43;;;;;;;13.53;8.33;;;;;;;20.71;89.28;100802.39;1680733;84;21582;-86
2021/08/26 00:06:29;;;;;;;9.28;7.08;;;;;;;20.67;88.78;100798.42;1684550;83;20969;-87
2021/08/26 00:08:56;;;;;;;8.93;6.97;;;;;;;20.63;88.90;100804.51;1672469;85;21061;-87
2021/08/26 00:11:24;;;;;;;41.40;8.73;;;;;;;20.62;88.98;100802.85;1672309;85;20990;-87
2021/08/26 00:13:53;;;;;;;26.00;8.33;;;;;;;20.62;88.99;100788.34;1672645;85;20974;-86
2021/08/26 00:16:25;;;;;;;9.60;7.67;;;;;;;20.62;88.82;100790.16;1672602;85;21160;-86
2021/08/26 00:18:53;;;;;;;11.50;7.70;;;;;;;20.62;88.85;100788.84;1672491;85;20963;-86
2021/08/26 00:21:20;;;;;;;11.15;8.08;;;;;;;20.58;88.83;100793.12;1672591;85;21018;-86
2021/08/26 00:23:46;;;;;;;11.83;6.97;;;;;;;20.56;88.94;100800.38;1672376;85;21518;-86
2021/08/26 00:26:14;;;;;;;9.28;6.90;;;;;;;20.53;89.01;100797.23;1672367;85;20959;-85
2021/08/26 00:28:41;;;;;;;10.05;7.08;;;;;;;20.52;89.17;100797.72;1672544;85;21136;-85
2021/08/26 00:31:07;;;;;;;9.45;7.70;;;;;;;20.49;89.17;100796.73;1672418;85;20974;-85
2021/08/26 00:33:36;;;;;;;10.60;7.50;;;;;;;20.48;89.33;100800.38;1672154;85;21022;-86
2021/08/26 00:36:03;;;;;;;11.15;7.78;;;;;;;20.45;89.35;100793.28;1672284;85;20880;-86
2021/08/26 00:38:29;;;;;;;10.82;7.25;;;;;;;20.42;89.40;100787.02;1672361;85;21621;-87
2021/08/26 00:40:59;;;;;;;10.53;7.37;;;;;;;20.37;89.43;100778.75;1672347;85;21187;-86
2021/08/26 00:43:33;;;;;;;8.08;6.80;;;;;;;20.36;89.63;100775.77;1672469;85;20915;-86
2021/08/26 00:45:59;;;;;;;9.55;7.53;;;;;;;20.32;89.71;100777.09;1672435;85;21442;-86
2021/08/26 00:48:27;;;;;;;8.78;7.67;;;;;;;20.31;89.87;100772.31;1672574;85;21034;-86
2021/08/26 00:50:54;;;;;;;17.90;8.65;;;;;;;20.31;89.97;100763.09;1672288;85;20903;-84
2021/08/26 00:53:21;;;;;;;12.00;8.33;;;;;;;20.30;90.00;100759.28;1672460;85;21813;-86
2021/08/26 00:55:48;;;;;;;9.78;7.37;;;;;;;20.29;89.99;100760.30;1672344;85;21048;-85
2021/08/26 00:58:14;;;;;;;14.83;7.83;;;;;;;20.27;90.14;100758.30;1672364;85;21046;-86
2021/08/26 01:00:50;;;;;;;11.75;8.13;;;;;;;20.27;90.21;100753.84;1672267;85;20939;-86
2021/08/26 01:03:21;;;;;;;24.50;9.15;;;;;;;20.26;90.26;100750.88;1672363;85;21001;-85
2021/08/26 01:05:54;;;;;;;44.80;11.85;;;;;;;20.23;90.41;100747.73;1654685;85;21145;-86
2021/08/26 01:08:38;;;;;;;56.50;13.93;;;;;;;20.22;90.60;100742.13;1682695;85;20967;-87
2021/08/26 01:11:05;;;;;;;43.80;12.68;;;;;;;20.21;90.68;100736.02;1681741;85;20911;-86
2021/08/26 01:13:36;;;;;;;51.28;11.97;;;;;;;20.21;90.66;100732.06;1682784;85;21315;-86
2021/08/26 01:16:09;;;;;;;54.98;11.33;;;;;;;20.21;90.68;100723.33;1682689;85;21604;-86
2021/08/26 01:18:43;;;;;;;45.63;12.18;;;;;;;20.21;90.67;100729.92;1682563;85;21841;-87
2021/08/26 01:21:22;;;;;;;35.73;10.68;;;;;;;20.22;90.94;100728.45;1682812;85;21045;-86
2021/08/26 01:23:53;;;;;;;29.07;11.43;;;;;;;20.24;90.82;100730.42;1682816;85;21045;-87
2021/08/26 01:26:27;;;;;;;30.70;9.55;;;;;;;20.26;90.65;100731.59;1658994;85;21580;-87
2021/08/26 01:28:54;;;;;;;23.57;9.93;;;;;;;20.27;90.55;100731.94;1682742;85;21002;-86
2021/08/26 01:31:21;;;;;;;17.62;8.73;;;;;;;20.28;90.42;100727.84;1682679;85;21635;-87
2021/08/26 01:33:50;;;;;;;16.32;7.80;;;;;;;20.30;90.33;100732.93;1682656;85;20946;-87
2021/08/26 01:36:18;;;;;;;17.05;7.80;;;;;;;20.31;90.15;100725.37;1682403;85;21034;-87
2021/08/26 01:38:46;;;;;;;11.50;8.63;;;;;;;20.33;90.04;100727.33;1682667;85;20982;-86
2021/08/26 01:41:16;;;;;;;11.20;8.60;;;;;;;20.32;89.99;100718.63;1682934;85;21026;-86
2021/08/26 01:43:48;;;;;;;12.28;8.28;;;;;;;20.31;90.01;100713.50;1682861;85;21879;-86
2021/08/26 01:46:17;;;;;;;11.57;8.27;;;;;;;20.29;90.12;100718.13;1655288;86;21444;-87
2021/08/26 01:48:47;;;;;;;10.18;8.18;;;;;;;20.27;90.12;100716.95;1686067;85;22280;-87
2021/08/26 01:51:14;;;;;;;14.85;9.23;;;;;;;20.27;90.23;100721.39;1682811;85;21508;-87
2021/08/26 01:53:41;;;;;;;10.63;8.48;;;;;;;20.26;90.30;100716.61;1682837;85;20907;-87
2021/08/26 01:56:07;;;;;;;10.53;8.58;;;;;;;20.24;90.35;100725.16;1682631;85;21152;-87
2021/08/26 01:58:34;;;;;;;9.88;8.90;;;;;;;20.21;90.62;100723.33;1682822;85;21007;-87
2021/08/26 02:01:01;;;;;;;11.63;7.90;;;;;;;20.19;90.78;100719.56;1682610;85;20971;-86
2021/08/26 02:03:27;;;;;;;12.60;9.93;;;;;;;20.17;90.87;100720.19;1682716;85;21033;-88
2021/08/26 02:05:53;;;;;;;9.95;8.28;;;;;;;20.15;91.00;100727.45;1678925;84;21635;-88
2021/08/26 02:08:20;;;;;;;9.13;8.20;;;;;;;20.11;91.14;100726.11;1672510;85;21262;-88
2021/08/26 02:10:46;;;;;;;13.28;8.18;;;;;;;20.07;91.43;100720.82;1672725;85;20999;-87
2021/08/26 02:13:13;;;;;;;14.95;8.65;;;;;;;20.06;91.58;100716.56;1672463;85;21071;-88
2021/08/26 02:15:39;;;;;;;10.65;8.80;;;;;;;20.02;91.68;100719.17;1672457;85;21046;-87
2021/08/26 02:18:06;;;;;;;12.30;8.88;;;;;;;19.98;91.92;100720.47;1672620;85;21006;-88
2021/08/26 02:20:32;;;;;;;15.05;10.23;;;;;;;19.92;92.13;100711.41;1672555;85;21187;-86
2021/08/26 02:22:59;;;;;;;13.30;9.73;;;;;;;19.88;92.20;100723.23;1672567;85;20915;-87
2021/08/26 02:25:26;;;;;;;13.30;9.00;;;;;;;19.83;92.40;100720.76;1672594;85;21682;-88
2021/08/26 02:27:52;;;;;;;20.10;10.15;;;;;;;19.81;92.69;100725.37;1672717;85;21114;-88
2021/08/26 02:30:19;;;;;;;14.55;10.15;;;;;;;19.78;92.94;100721.73;1672362;85;21019;-88
2021/08/26 02:32:45;;;;;;;17.27;10.48;;;;;;;19.76;93.12;100725.00;1672575;85;21187;-88
2021/08/26 02:35:12;;;;;;;17.98;10.13;;;;;;;19.75;93.31;100729.44;1672708;85;21533;-87
2021/08/26 02:37:38;;;;;;;15.68;10.35;;;;;;;19.75;93.37;100734.70;1672558;85;21002;-91
2021/08/26 02:40:07;;;;;;;21.97;9.53;;;;;;;19.75;93.28;100734.70;1672440;85;21079;-90
2021/08/26 02:42:34;;;;;;;16.15;9.43;;;;;;;19.72;92.93;100731.08;1672738;85;20951;-88
2021/08/26 02:45:00;;;;;;;19.12;9.08;;;;;;;19.69;92.62;100728.76;1672589;85;21948;-88
2021/08/26 02:47:28;;;;;;;14.15;8.80;;;;;;;19.67;92.66;100722.84;1672593;85;20979;-87
2021/08/26 02:49:55;;;;;;;15.70;9.85;;;;;;;19.65;92.82;100726.62;1650137;85;21031;-88
2021/08/26 02:52:21;;;;;;;13.43;9.08;;;;;;;19.63;92.83;100720.66;1672543;85;20943;-87
2021/08/26 02:54:48;;;;;;;20.45;10.53;;;;;;;19.61;92.87;100722.64;1672453;85;21066;-89
2021/08/26 02:57:14;;;;;;;16.42;10.05;;;;;;;19.60;92.93;100728.87;1672377;85;21140;-88
2021/08/26 02:59:41;;;;;;;18.50;8.98;;;;;;;19.58;93.00;100726.91;1672487;85;21545;-89
2021/08/26 03:02:08;;;;;;;17.55;9.20;;;;;;;19.54;92.81;100724.59;1672434;85;20998;-88
2021/08/26 03:04:34;;;;;;;14.25;10.30;;;;;;;19.53;92.55;100728.20;1672698;85;21553;-85
2021/08/26 03:07:03;;;;;;;14.98;9.93;;;;;;;19.50;92.43;100718.47;1679118;85;20942;-84
2021/08/26 03:09:31;;;;;;;11.93;9.05;;;;;;;19.43;92.35;100712.20;1682195;85;21178;-87
2021/08/26 03:11:58;;;;;;;12.43;9.23;;;;;;;19.34;92.60;100698.61;1682126;85;20963;-86
2021/08/26 03:14:24;;;;;;;14.73;10.28;;;;;;;19.24;92.77;100702.67;1682354;85;20967;-84
2021/08/26 03:16:52;;;;;;;10.68;9.33;;;;;;;19.15;93.01;100707.55;1709893;84;21014;-85
2021/08/26 03:19:19;;;;;;;13.40;8.78;;;;;;;19.08;93.18;100713.09;1710071;84;21002;-85
2021/08/26 03:21:45;;;;;;;13.48;8.25;;;;;;;19.00;93.15;100710.42;1710002;84;21094;-88
2021/08/26 03:24:13;;;;;;;13.72;8.75;;;;;;;18.91;93.30;100710.86;1710071;84;20993;-85
2021/08/26 03:26:40;;;;;;;15.58;9.68;;;;;;;18.86;93.43;100713.59;1710159;83;21017;-84
2021/08/26 03:29:06;;;;;;;16.82;9.05;;;;;;;18.82;93.69;100720.16;1710146;83;20946;-85
2021/08/26 03:31:33;;;;;;;16.65;9.00;;;;;;;18.77;93.84;100724.55;1710090;84;20918;-85
2021/08/26 03:33:59;;;;;;;20.90;9.30;;;;;;;18.74;93.99;100734.05;1710043;84;21748;-84
2021/08/26 03:36:28;;;;;;;11.55;8.45;;;;;;;18.73;94.03;100736.84;1710133;84;21038;-85
2021/08/26 03:38:56;;;;;;;13.68;8.98;;;;;;;18.71;94.03;100730.90;1710052;84;21658;-89
2021/08/26 03:41:22;;;;;;;12.65;8.63;;;;;;;18.68;93.90;100735.15;1710111;83;20990;-89
2021/08/26 03:43:50;;;;;;;14.90;9.43;;;;;;;18.66;93.95;100732.69;1710100;83;20927;-85
2021/08/26 03:46:16;;;;;;;12.60;8.75;;;;;;;18.66;94.27;100735.31;1709874;84;21093;-85
2021/08/26 03:48:45;;;;;;;10.18;9.05;;;;;;;18.64;94.28;100742.50;1710130;83;20860;-86
2021/08/26 03:51:11;;;;;;;14.13;9.15;;;;;;;18.62;94.36;100744.95;1710219;83;20982;-86
2021/08/26 03:53:38;;;;;;;19.57;8.98;;;;;;;18.60;94.36;100745.60;1710005;84;20990;-86
2021/08/26 03:56:06;;;;;;;15.53;8.65;;;;;;;18.60;94.44;100749.55;1710045;84;20895;-83
2021/08/26 03:58:33;;;;;;;10.82;8.15;;;;;;;18.59;94.53;100739.52;1710079;84;21102;-85
2021/08/26 04:01:07;;;;;;;15.88;8.78;;;;;;;18.61;94.52;100739.34;1710089;83;20946;-86
2021/08/26 04:03:34;;;;;;;15.50;9.00;;;;;;;18.61;94.51;100739.34;1710052;84;21493;-84
2021/08/26 04:06:00;;;;;;;14.83;8.98;;;;;;;18.59;94.52;100739.52;1710000;84;20942;-83
2021/08/26 04:08:27;;;;;;;14.23;8.65;;;;;;;18.58;94.51;100743.59;1710036;83;20989;-88
2021/08/26 04:10:54;;;;;;;12.43;8.33;;;;;;;18.57;94.55;100740.13;1710024;83;21493;-89
2021/08/26 04:13:20;;;;;;;24.35;8.73;;;;;;;18.58;94.59;100733.91;1709989;83;21009;-88
2021/08/26 04:15:49;;;;;;;22.60;8.93;;;;;;;18.61;94.59;100731.46;1710028;83;20998;-89
2021/08/26 04:18:16;;;;;;;15.00;8.73;;;;;;;18.66;94.36;100726.59;1710063;84;21090;-90
2021/08/26 04:20:45;;;;;;;12.70;8.65;;;;;;;18.71;94.28;100715.95;1694052;84;21431;-86
2021/08/26 04:23:11;;;;;;;15.20;8.75;;;;;;;18.78;94.19;100712.23;1709950;84;21111;-88
2021/08/26 04:25:39;;;;;;;13.80;8.43;;;;;;;18.85;93.95;100718.05;1709950;84;20994;-86
2021/08/26 04:28:06;;;;;;;16.37;9.30;;;;;;;18.94;93.81;100713.67;1710063;84;21081;-84
2021/08/26 04:30:32;;;;;;;17.10;9.40;;;;;;;19.02;93.54;100713.71;1710192;83;20946;-86
2021/08/26 04:33:00;;;;;;;11.08;8.88;;;;;;;19.10;93.34;100721.67;1710213;84;21018;-86
2021/08/26 04:35:27;;;;;;;12.93;9.08;;;;;;;19.18;92.99;100719.56;1710056;84;21513;-86
2021/08/26 04:37:54;;;;;;;17.67;9.85;;;;;;;19.24;92.66;100717.66;1709912;84;20930;-88
2021/08/26 04:40:21;;;;;;;12.50;9.00;;;;;;;19.26;92.43;100723.09;1710060;84;21532;-87
2021/08/26 04:42:48;;;;;;;12.88;8.88;;;;;;;19.30;92.34;100715.72;1709905;83;20989;-87
2021/08/26 04:45:16;;;;;;;13.03;9.10;;;;;;;19.34;92.14;100718.34;1709890;84;21904;-86
2021/08/26 04:47:43;;;;;;;10.48;8.73;;;;;;;19.39;92.03;100714.77;1710176;84;21104;-88
2021/08/26 04:50:10;;;;;;;17.92;9.33;;;;;;;19.46;91.88;100723.73;1709840;84;21057;-85
2021/08/26 04:52:37;;;;;;;14.93;9.58;;;;;;;19.51;91.69;100726.22;1710024;83;21018;-84
2021/08/26 04:55:04;;;;;;;17.67;8.95;;;;;;;19.54;91.52;100716.70;1709863;83;20978;-85
2021/08/26 04:57:32;;;;;;;19.73;10.45;;;;;;;19.57;91.30;100716.86;1709999;84;20883;-85
2021/08/26 04:59:58;;;;;;;17.05;9.58;;;;;;;19.59;91.39;100720.19;1710075;84;21728;-86
2021/08/26 05:02:25;;;;;;;18.55;9.53;;;;;;;19.63;91.21;100723.30;1709927;83;20896;-87
2021/08/26 05:04:51;;;;;;;11.30;9.50;;;;;;;19.66;90.99;100715.08;1709889;83;20902;-82
2021/08/26 05:07:18;;;;;;;16.55;9.78;;;;;;;19.68;90.73;100717.09;1719252;82;21020;-82
2021/08/26 05:09:44;;;;;;;17.92;9.18;;;;;;;19.69;90.53;100721.37;1710774;83;20965;-83
2021/08/26 05:12:11;;;;;;;20.72;9.55;;;;;;;19.69;90.40;100734.55;1728143;83;21583;-84
2021/08/26 05:14:37;;;;;;;16.87;10.28;;;;;;;19.69;90.22;100741.13;1710683;83;21011;-82
2021/08/26 05:17:04;;;;;;;14.07;9.83;;;;;;;19.69;89.95;100741.13;1680757;85;21016;-85
2021/08/26 05:19:31;;;;;;;15.40;10.63;;;;;;;19.67;89.72;100748.34;1704499;84;20895;-88
2021/08/26 05:21:58;;;;;;;13.53;10.58;;;;;;;19.64;89.71;100743.39;1728146;83;21092;-84
2021/08/26 05:24:25;;;;;;;33.90;10.53;;;;;;;19.64;90.05;100738.95;1728159;83;21114;-86
2021/08/26 05:26:52;;;;;;;17.05;8.78;;;;;;;19.68;89.80;100734.20;1728443;83;20975;-88
2021/08/26 05:29:19;;;;;;;18.82;9.73;;;;;;;19.69;89.78;100729.28;1728677;83;20939;-89
2021/08/26 05:31:46;;;;;;;12.47;10.60;;;;;;;19.73;89.81;100735.37;1728692;83;20974;-92
2021/08/26 05:34:15;;;;;;;23.35;10.28;;;;;;;19.81;89.60;100730.16;1728413;83;20932;-90
2021/08/26 05:36:42;;;;;;;17.80;11.30;;;;;;;19.86;89.29;100733.12;1728257;83;21074;-84
2021/08/26 05:39:10;;;;;;;15.45;10.85;;;;;;;19.90;89.08;100736.27;1728083;83;21033;-87
2021/08/26 05:41:36;;;;;;;14.40;10.13;;;;;;;19.91;88.85;100732.66;1727730;83;21507;-87
2021/08/26 05:44:04;;;;;;;14.05;10.10;;;;;;;19.93;88.75;100739.41;1728683;83;20997;-87
2021/08/26 05:46:30;;;;;;;19.62;10.30;;;;;;;19.96;88.45;100739.58;1728567;83;21449;-86
2021/08/26 05:48:56;;;;;;;15.18;9.78;;;;;;;20.01;88.35;100746.49;1728335;83;21175;-85
2021/08/26 05:51:24;;;;;;;23.77;10.53;;;;;;;20.06;88.37;100740.27;1710705;82;20950;-83
2021/08/26 05:53:59;;;;;;;19.27;11.08;;;;;;;20.09;88.15;100733.36;1681413;84;20950;-86
2021/08/26 05:56:27;;;;;;;21.05;11.80;;;;;;;20.13;88.09;100733.87;1705678;84;21088;-88
2021/08/26 05:58:56;;;;;;;33.70;12.53;;;;;;;20.13;87.85;100738.65;1726349;83;21048;-86
2021/08/26 06:01:29;;;;;;;22.50;10.95;;;;;;;20.14;87.88;100748.18;1711954;81;21862;-82
2021/08/26 06:03:58;;;;;;;25.57;11.20;;;;;;;20.18;87.57;100744.73;1718498;81;20992;-81
2021/08/26 06:06:28;;;;;;;15.38;11.68;;;;;;;20.16;87.25;100742.28;1708726;82;20960;-80
2021/08/26 06:08:57;;;;;;;17.42;10.98;;;;;;;20.10;87.13;100738.97;1685255;83;21123;-79
2021/08/26 06:11:26;;;;;;;23.80;11.10;;;;;;;20.02;87.55;100742.39;1685023;83;21132;-86
2021/08/26 06:13:53;;;;;;;15.30;10.72;;;;;;;19.97;88.23;100739.91;1685011;83;21138;-85
2021/08/26 06:16:20;;;;;;;23.27;11.38;;;;;;;19.99;88.87;100744.03;1684913;83;21477;-83
2021/08/26 06:18:53;;;;;;;18.37;10.85;;;;;;;20.03;88.77;100745.37;1685209;85;21024;-81
2021/08/26 06:21:25;;;;;;;19.82;10.82;;;;;;;20.01;88.78;100743.38;1684923;83;20974;-79
2021/08/26 06:23:53;;;;;;;16.12;10.85;;;;;;;19.96;88.94;100746.98;1685425;85;20966;-85
2021/08/26 06:26:22;;;;;;;16.48;11.28;;;;;;;19.92;89.19;100751.41;1684285;83;21115;-82
2021/08/26 06:28:48;;;;;;;14.90;10.80;;;;;;;19.93;89.63;100757.84;1684667;83;21017;-84
2021/08/26 06:31:15;;;;;;;15.15;10.85;;;;;;;19.97;90.19;100750.45;1685019;83;20993;-85
2021/08/26 06:33:43;;;;;;;16.77;10.82;;;;;;;20.02;90.59;100750.78;1684981;83;21541;-90
2021/08/26 06:36:12;;;;;;;12.65;10.98;;;;;;;20.07;90.52;100753.27;1685078;83;21079;-79
2021/08/26 06:38:41;;;;;;;14.18;11.28;;;;;;;20.15;90.22;100769.61;1685315;85;21880;-85
2021/08/26 06:41:09;;;;;;;16.27;11.95;;;;;;;20.17;89.60;100770.75;1684968;83;20966;-89
2021/08/26 06:43:38;;;;;;;15.32;11.63;;;;;;;20.15;89.05;100767.45;1684638;83;21508;-90
2021/08/26 06:46:06;;;;;;;17.60;11.93;;;;;;;20.11;89.35;100768.75;1685016;84;21013;-84
2021/08/26 06:48:36;;;;;;;16.93;11.88;;;;;;;20.12;89.46;100773.05;1685368;85;21453;-82
2021/08/26 06:51:03;;;;;;;15.78;11.15;;;;;;;20.11;89.38;100771.39;1684330;83;21137;-87
2021/08/26 06:53:30;;;;;;;16.12;11.25;;;;;;;20.07;89.47;100776.98;1684702;83;21114;-87
2021/08/26 06:55:57;;;;;;;15.85;11.15;;;;;;;20.10;89.75;100777.66;1685029;84;21010;-90
2021/08/26 06:58:23;;;;;;;15.30;11.25;;;;;;;20.12;89.53;100777.83;1685234;84;21041;-84
2021/08/26 07:00:51;;;;;;;22.58;13.50;;;;;;;20.06;89.65;100775.34;1684377;83;21025;-83
2021/08/26 07:03:18;;;;;;;21.48;11.85;;;;;;;20.06;89.91;100786.37;1711583;83;21058;-84
2021/08/26 07:05:45;;;;;;;17.10;11.63;;;;;;;20.10;90.03;100785.08;1712738;83;21006;-88
2021/08/26 07:08:13;;;;;;;12.50;11.20;;;;;;;20.14;89.71;100790.34;1721979;82;21005;-83
2021/08/26 07:10:40;;;;;;;16.65;10.45;;;;;;;20.17;89.36;100790.51;1706360;84;21019;-83
2021/08/26 07:13:06;;;;;;;20.77;13.25;;;;;;;20.15;89.29;100793.31;1707804;84;21069;-85
2021/08/26 07:15:33;;;;;;;24.25;17.10;;;;;;;20.18;89.39;100793.48;1707532;84;22005;-84
2021/08/26 07:18:00;;;;;;;38.23;24.45;;;;;;;20.23;89.21;100803.07;1706209;84;21044;-88
2021/08/26 07:20:28;;;;;;;23.10;17.40;;;;;;;20.26;89.07;100804.90;1706178;84;32467;-83
2021/08/26 07:22:55;;;;;;;19.50;12.43;;;;;;;20.28;88.57;100808.70;1706196;84;20919;-82
2021/08/26 07:25:23;;;;;;;22.30;13.22;;;;;;;20.27;88.19;100808.36;1706450;84;20991;-87
2021/08/26 07:27:49;;;;;;;20.45;12.70;;;;;;;20.30;88.17;100797.02;1706943;84;21783;-88
2021/08/26 07:30:19;;;;;;;19.55;13.18;;;;;;;20.36;88.35;100798.17;1706497;84;20942;-87
2021/08/26 07:32:46;;;;;;;19.50;14.55;;;;;;;20.37;89.21;100807.25;1723166;82;21045;-83
2021/08/26 07:35:13;;;;;;;19.35;13.78;;;;;;;20.37;89.82;100807.74;1737077;82;20974;-92
2021/08/26 07:37:40;;;;;;;29.67;15.03;;;;;;;20.32;89.87;100816.15;1737242;82;20891;-84
2021/08/26 07:40:11;;;;;;;20.97;14.78;;;;;;;20.28;90.41;100813.98;1737134;82;21108;-86
2021/08/26 07:42:43;;;;;;;22.75;15.25;;;;;;;20.25;90.67;100824.81;1725214;82;21548;-91
2021/08/26 07:45:11;;;;;;;26.10;17.30;;;;;;;20.26;90.78;100831.25;1723675;82;21562;-87
2021/08/26 07:47:38;;;;;;;27.32;19.12;;;;;;;20.30;90.83;100833.91;1704696;82;22302;-86
2021/08/26 07:50:07;;;;;;;26.15;16.20;;;;;;;20.34;91.22;100835.73;1732577;82;20939;-82
2021/08/26 07:52:33;;;;;;;17.70;12.80;;;;;;;20.25;92.80;100823.48;1711873;82;21800;-85
2021/08/26 07:55:02;;;;;;;22.82;14.23;;;;;;;20.06;94.87;100814.87;1732670;82;20898;-80
2021/08/26 07:57:31;;;;;;;24.37;13.75;;;;;;;19.90;96.83;100807.38;1732385;82;21021;-83
2021/08/26 07:59:57;;;;;;;20.82;13.85;;;;;;;19.82;99.04;100808.15;1732238;82;21073;-84
2021/08/26 08:02:24;;;;;;;24.27;16.50;;;;;;;19.74;100.00;100808.61;1722630;82;20966;-81
2021/08/26 08:04:53;;;;;;;30.08;18.02;;;;;;;19.70;100.00;100805.95;1717303;82;21117;-84
2021/08/26 08:07:19;;;;;;;25.97;17.55;;;;;;;19.66;100.00;100814.64;1714136;82;20986;-81
2021/08/26 08:09:46;;;;;;;31.05;17.52;;;;;;;19.67;100.00;100807.58;1696661;84;21089;-86
2021/08/26 08:12:13;;;;;;;23.45;15.55;;;;;;;19.71;100.00;100808.92;1691805;84;21039;-85
2021/08/26 08:14:42;;;;;;;29.80;18.50;;;;;;;19.77;100.00;100810.45;1697966;84;21604;-87
2021/08/26 08:17:08;;;;;;;26.65;18.25;;;;;;;19.83;100.00;100816.39;1700452;83;21136;-82
2021/08/26 08:19:36;;;;;;;27.85;17.40;;;;;;;19.89;100.00;100810.50;1696075;84;21534;-86
2021/08/26 08:22:04;;;;;;;23.42;15.83;;;;;;;19.94;99.33;100829.80;1689374;84;21415;-85
2021/08/26 08:24:31;;;;;;;25.60;17.23;;;;;;;19.91;98.77;100823.52;1694333;83;21679;-85
2021/08/26 08:26:58;;;;;;;24.25;16.25;;;;;;;19.91;98.88;100816.94;1674471;85;21011;-86
2021/08/26 08:29:25;;;;;;;33.23;21.37;;;;;;;19.93;99.22;100813.64;1674548;85;21173;-84
2021/08/26 08:31:51;;;;;;;43.02;26.35;;;;;;;19.91;99.93;100811.16;1678645;84;20895;-89
2021/08/26 08:34:19;;;;;;;33.08;22.40;;;;;;;19.85;100.00;100803.05;1697818;84;21019;-90
2021/08/26 08:36:49;;;;;;;31.45;21.40;;;;;;;19.86;100.00;100808.66;1699403;84;21018;-88
2021/08/26 08:39:17;;;;;;;27.73;19.25;;;;;;;19.88;100.00;100807.52;1694494;83;21070;-87
2021/08/26 08:41:47;;;;;;;24.85;17.77;;;;;;;19.91;100.00;100815.11;1695477;84;21296;-83
2021/08/26 08:44:19;;;;;;;20.97;16.00;;;;;;;19.86;100.00;100812.12;1696017;84;21042;-85
2021/08/26 08:46:48;;;;;;;26.27;16.77;;;;;;;19.72;100.00;100804.00;1693178;83;21046;-86
2021/08/26 08:49:21;;;;;;;20.68;14.68;;;;;;;19.57;100.00;100795.01;1695752;83;21025;-85
2021/08/26 08:51:54;;;;;;;15.15;12.63;;;;;;;19.50;100.00;100796.12;1687368;84;21075;-83
2021/08/26 08:54:20;;;;;;;;;;;;;;;19.33;100.00;100796.50;1697314;84;21118;-79
2021/08/26 08:56:49;;;;;;;18.95;12.63;;;;;;;19.23;100.00;100794.93;1677200;85;20179;-90
2021/08/26 08:59:16;;;;;;;20.75;13.95;;;;;;;19.15;100.00;100788.27;1702453;84;21097;-84
2021/08/26 09:01:53;;;;;;;19.15;13.35;;;;;;;19.08;100.00;100776.22;1702837;84;21053;-82
2021/08/26 09:04:22;;;;;;;18.32;13.43;;;;;;;19.07;100.00;100765.38;1691581;84;20932;-80
2021/08/26 09:06:51;;;;;;;15.58;12.28;;;;;;;19.09;100.00;100782.31;1698940;84;21045;-84
2021/08/26 09:09:21;;;;;;;15.18;12.35;;;;;;;19.07;100.00;100790.86;1703341;82;21548;-81
2021/08/26 09:11:54;;;;;;;16.82;13.03;;;;;;;19.12;100.00;100794.67;1702743;84;21540;-85
2021/08/26 09:14:27;;;;;;;16.70;12.07;;;;;;;19.19;100.00;100799.67;1703056;84;20931;-77
2021/08/26 09:16:59;;;;;;;15.10;12.82;;;;;;;19.21;100.00;100798.22;1703933;82;21426;-81
2021/08/26 09:19:31;;;;;;;15.95;12.33;;;;;;;19.27;100.00;100797.59;1660480;84;21158;-87
2021/08/26 09:22:05;;;;;;;14.65;11.90;;;;;;;19.37;100.00;100804.39;1674548;83;21017;-83
2021/08/26 09:24:52;;;;;;;15.80;12.03;;;;;;;19.43;100.00;100801.69;1711699;82;20946;-85
2021/08/26 09:27:40;;;;;;;15.85;12.78;;;;;;;19.45;100.00;100800.55;1713090;83;21045;-80
2021/08/26 09:30:12;;;;;;;16.93;12.43;;;;;;;19.49;100.00;100797.13;1714102;83;21017;-83
2021/08/26 09:32:50;;;;;;;;;;;;;;;19.62;100.00;100809.86;1716631;83;21126;-91
2021/08/26 09:35:24;;;;;;;14.58;11.50;;;;;;;19.76;100.00;100815.36;1713971;83;20208;-87
2021/08/26 09:37:57;;;;;;;15.50;11.20;;;;;;;19.87;100.00;100807.70;1696325;82;21541;-88
2021/08/26 09:40:30;;;;;;;14.10;10.70;;;;;;;19.98;100.00;100808.72;1696105;83;20965;-84
2021/08/26 09:43:04;;;;;;;13.08;10.65;;;;;;;20.14;100.00;100811.91;1691985;83;21533;-86
2021/08/26 09:45:39;;;;;;;13.32;11.35;;;;;;;20.27;100.00;100807.05;1695857;83;20986;-84
2021/08/26 09:48:11;;;;;;;12.40;10.50;;;;;;;20.45;100.00;100808.58;1699650;83;21612;-88
2021/08/26 09:50:50;;;;;;;13.50;10.63;;;;;;;20.70;100.00;100804.69;1705363;83;21063;-83
2021/08/26 09:53:22;;;;;;;12.55;10.30;;;;;;;21.03;99.25;100807.66;1679897;85;21052;-82
2021/08/26 09:55:51;;;;;;;;;;;;;;;21.20;96.42;100810.67;1656909;85;20982;-80
2021/08/26 09:58:25;;;;;;;14.38;11.28;;;;;;;21.24;92.62;100799.29;1686823;83;21821;-87
2021/08/26 10:01:22;;;;;;;13.80;12.18;;;;;;;21.29;93.55;100796.95;1690300;83;21009;-80
2021/08/26 10:03:50;;;;;;;13.40;11.00;;;;;;;21.47;92.87;100804.22;1681399;85;20974;-88
2021/08/26 10:06:18;;;;;;;15.45;10.98;;;;;;;21.59;91.18;100800.22;1690251;83;21088;-81
2021/08/26 10:08:48;;;;;;;12.73;10.53;;;;;;;22.13;89.34;100799.89;1677848;83;21141;-90
2021/08/26 10:11:18;;;;;;;11.30;10.15;;;;;;;22.78;86.96;100799.55;1672906;85;21197;-80
2021/08/26 10:13:48;;;;;;;11.85;10.70;;;;;;;23.35;81.56;100785.31;1674212;84;21028;-83
2021/08/26 10:16:15;;;;;;;12.73;10.70;;;;;;;23.76;80.63;100784.41;1671785;85;21015;-83
2021/08/26 10:18:45;;;;;;;11.20;10.10;;;;;;;24.31;78.45;100782.08;1670697;85;21667;-82
2021/08/26 10:21:12;;;;;;;15.53;10.05;;;;;;;24.56;76.57;100786.52;1671411;85;21477;-88
2021/08/26 10:26:30;;;;;;;10.80;9.68;;;;;;;24.57;74.57;100777.02;1610779;84;21041;-83
2021/08/26 10:28:58;;;;;;;10.85;9.75;;;;;;;24.57;71.73;100774.38;1655562;84;21024;-84
2021/08/26 10:31:34;;;;;;;10.65;9.65;;;;;;;24.39;71.46;100773.16;1700660;84;20966;-87
2021/08/26 10:34:24;;;;;;;11.93;10.03;;;;;;;24.32;72.28;100775.73;1678541;84;21518;-86
2021/08/26 10:37:04;;;;;;;11.80;10.60;;;;;;;24.31;70.92;100778.09;1684635;84;21113;-88
2021/08/26 10:39:41;;;;;;;10.45;9.35;;;;;;;24.33;72.64;100779.22;1693546;84;21600;-84
2021/08/26 10:42:35;;;;;;;10.55;9.50;;;;;;;24.38;72.38;100768.36;1687523;84;21077;-83
2021/08/26 10:45:13;;;;;;;10.40;9.15;;;;;;;24.38;70.42;100764.91;1696540;84;21056;-87
2021/08/26 10:47:56;;;;;;;10.40;9.30;;;;;;;24.25;69.72;100764.23;1683295;84;21432;-84
2021/08/26 10:50:26;;;;;;;9.25;8.25;;;;;;;24.06;69.45;100767.47;1674779;85;21131;-84
2021/08/26 10:53:16;;;;;;;11.57;8.90;;;;;;;24.02;70.58;100763.05;1674659;85;21077;-84
2021/08/26 10:55:47;;;;;;;9.93;8.33;;;;;;;24.09;69.55;100763.92;1650132;85;21466;-86
2021/08/26 10:58:30;;;;;;;9.38;8.38;;;;;;;24.27;70.49;100765.38;1675282;85;21073;-86
2021/08/26 11:01:05;;;;;;;9.53;8.50;;;;;;;24.37;68.69;100769.39;1681291;84;20994;-87
2021/08/26 11:03:42;;;;;;;13.28;8.93;;;;;;;24.48;68.09;100762.74;1706641;82;21134;-86
2021/08/26 11:06:22;;;;;;;13.88;8.85;;;;;;;24.57;67.64;100761.63;1706566;84;21138;-88
2021/08/26 11:09:09;;;;;;;11.50;8.63;;;;;;;24.61;67.30;100762.37;1703254;83;20943;-89
2021/08/26 11:11:39;;;;;;;10.30;8.40;;;;;;;24.75;66.97;100759.34;1701054;83;21026;-84
2021/08/26 11:14:11;;;;;;;10.28;9.05;;;;;;;24.69;65.32;100758.28;1697616;83;20925;-87
2021/08/26 11:16:44;;;;;;;10.80;8.35;;;;;;;24.71;65.79;100749.61;1694075;83;21013;-88
2021/08/26 11:19:26;;;;;;;9.28;8.25;;;;;;;24.83;64.72;100743.30;1722695;82;21034;-84
2021/08/26 11:22:01;;;;;;;17.90;8.55;;;;;;;24.97;64.54;100740.26;1723523;81;20939;-83
2021/08/26 11:24:38;;;;;;;10.50;7.80;;;;;;;25.15;63.53;100737.93;1698175;82;21030;-88
2021/08/26 11:27:20;;;;;;;9.73;7.53;;;;;;;25.41;62.73;100738.61;1707540;82;20998;-85
2021/08/26 11:29:48;;;;;;;12.33;7.97;;;;;;;25.65;60.52;100742.99;1738356;82;21831;-84